createdAt,value
2023-03-03T00:07:51.507Z,99.90
2023-03-03T00:10:18.534Z,99.90
2023-03-03T00:12:49.867Z,99.90
2023-03-03T00:15:19.724Z,99.90
2023-03-03T00:17:47.202Z,99.90
2023-03-03T00:20:26.505Z,99.90
2023-03-03T00:22:53.423Z,99.90
2023-03-03T00:25:29.997Z,99.90
2023-03-03T00:28:16.342Z,99.90
2023-03-03T00:30:43.226Z,99.90
2023-03-03T00:33:34.704Z,99.90
2023-03-03T00:36:22.656Z,99.90
2023-03-03T00:38:49.876Z,99.90
2023-03-03T00:41:24.304Z,99.90
2023-03-03T00:43:52.190Z,99.90
2023-03-03T00:46:22.266Z,99.90
2023-03-03T00:48:50.754Z,99.90
2023-03-03T00:51:23.517Z,99.90
2023-03-03T00:53:50.892Z,99.90
2023-03-03T00:56:17.770Z,99.90
2023-03-03T00:58:46.523Z,99.90
2023-03-03T01:01:14.127Z,99.90
2023-03-03T01:03:41.177Z,99.90
2023-03-03T01:06:08.354Z,99.90
2023-03-03T01:08:35.410Z,99.90
2023-03-03T01:11:16.461Z,99.90
2023-03-03T01:13:44.432Z,99.90
2023-03-03T01:16:11.428Z,99.90
2023-03-03T01:18:40.398Z,99.90
2023-03-03T01:21:08.156Z,99.90
2023-03-03T01:23:35.348Z,99.90
2023-03-03T01:26:02.359Z,99.90
2023-03-03T01:28:29.330Z,99.90
2023-03-03T01:31:05.122Z,99.90
2023-03-03T01:33:34.176Z,99.90
2023-03-03T01:36:01.389Z,99.90
2023-03-03T01:38:28.693Z,99.90
2023-03-03T01:40:57.802Z,99.90
2023-03-03T01:43:28.208Z,99.90
2023-03-03T01:45:57.989Z,99.90
2023-03-03T01:48:39.940Z,99.90
2023-03-03T01:51:27.774Z,99.90
2023-03-03T01:54:02.557Z,99.90
2023-03-03T01:56:30.619Z,99.90
2023-03-03T01:59:17.542Z,99.90
2023-03-03T02:01:47.695Z,99.90
2023-03-03T02:04:15.352Z,99.90
2023-03-03T02:06:47.364Z,99.90
2023-03-03T02:09:32.711Z,99.90
2023-03-03T02:12:05.201Z,99.90
2023-03-03T02:14:32.164Z,99.90
2023-03-03T02:16:59.132Z,99.90
2023-03-03T02:19:42.551Z,99.90
2023-03-03T02:22:09.947Z,99.90
2023-03-03T02:24:48.026Z,99.90
2023-03-03T02:27:15.041Z,99.90
2023-03-03T02:29:41.897Z,99.90
2023-03-03T02:32:08.916Z,99.90
2023-03-03T02:34:52.961Z,99.90
2023-03-03T02:37:21.144Z,99.90
2023-03-03T02:39:48.107Z,99.90
2023-03-03T02:42:27.877Z,99.90
2023-03-03T02:44:54.774Z,99.90
2023-03-03T02:47:21.695Z,99.90
2023-03-03T02:49:50.706Z,99.90
2023-03-03T02:52:19.149Z,99.90
2023-03-03T02:54:46.259Z,99.90
2023-03-03T02:57:13.172Z,99.90
2023-03-03T02:59:40.110Z,99.90
2023-03-03T03:02:08.900Z,99.90
2023-03-03T03:04:35.979Z,99.90
2023-03-03T03:07:03.575Z,99.90
2023-03-03T03:09:30.537Z,99.90
2023-03-03T03:11:59.316Z,99.90
2023-03-03T03:14:26.201Z,99.90
2023-03-03T03:16:53.148Z,99.90
2023-03-03T03:19:20.131Z,99.90
2023-03-03T03:21:47.011Z,99.90
2023-03-03T03:24:14.010Z,99.90
2023-03-03T03:26:41.818Z,99.90
2023-03-03T03:29:09.228Z,99.90
2023-03-03T03:31:36.176Z,99.90
2023-03-03T03:34:03.073Z,99.90
2023-03-03T03:36:29.966Z,99.90
2023-03-03T03:38:56.855Z,99.90
2023-03-03T03:41:23.809Z,99.90
2023-03-03T03:43:50.815Z,99.90
2023-03-03T03:46:17.822Z,99.90
2023-03-03T03:48:45.778Z,99.90
2023-03-03T03:51:13.106Z,99.90
2023-03-03T03:53:40.076Z,99.90
2023-03-03T03:56:07.393Z,99.90
2023-03-03T03:58:34.299Z,99.90
2023-03-03T04:01:06.155Z,99.90
2023-03-03T04:03:33.492Z,99.90
2023-03-03T04:06:00.558Z,99.90
2023-03-03T04:08:27.509Z,99.90
2023-03-03T04:10:54.429Z,99.90
2023-03-03T04:13:21.295Z,99.90
2023-03-03T04:15:48.354Z,99.90
2023-03-03T04:18:15.441Z,99.90
2023-03-03T04:20:42.572Z,99.90
2023-03-03T04:23:09.449Z,99.90
2023-03-03T04:25:36.428Z,99.90
2023-03-03T04:28:05.510Z,99.90
2023-03-03T04:30:32.584Z,99.90
2023-03-03T04:32:59.508Z,99.90
2023-03-03T04:35:26.407Z,99.90
2023-03-03T04:37:53.330Z,99.90
2023-03-03T04:40:20.373Z,99.90
2023-03-03T04:42:47.373Z,99.90
2023-03-03T04:45:14.408Z,99.90
2023-03-03T04:47:42.058Z,99.90
2023-03-03T04:50:10.319Z,99.90
2023-03-03T04:52:37.311Z,99.90
2023-03-03T04:55:05.260Z,99.90
2023-03-03T04:57:32.162Z,99.90
2023-03-03T04:59:59.072Z,99.90
2023-03-03T05:02:25.984Z,99.90
2023-03-03T05:04:53.061Z,99.90
2023-03-03T05:07:22.474Z,99.90
2023-03-03T05:09:49.438Z,99.90
2023-03-03T05:12:16.992Z,99.90
2023-03-03T05:14:43.866Z,99.90
2023-03-03T05:17:10.824Z,99.90
2023-03-03T05:19:37.712Z,99.90
2023-03-03T05:22:04.605Z,99.90
2023-03-03T05:24:31.568Z,99.90
2023-03-03T05:27:01.617Z,99.90
2023-03-03T05:29:31.506Z,99.90
2023-03-03T05:31:58.724Z,99.90
2023-03-03T05:34:25.713Z,99.90
2023-03-03T05:36:52.620Z,99.90
2023-03-03T05:39:19.562Z,99.90
2023-03-03T05:41:46.864Z,99.90
2023-03-03T05:44:13.763Z,99.90
2023-03-03T05:46:40.984Z,99.90
2023-03-03T05:49:08.079Z,99.90
2023-03-03T05:51:35.053Z,99.90
2023-03-03T05:54:02.047Z,99.90
2023-03-03T05:56:28.947Z,99.90
2023-03-03T05:58:56.180Z,99.90
2023-03-03T06:01:23.089Z,99.90
2023-03-03T06:03:50.005Z,99.90
2023-03-03T06:06:17.304Z,99.90
2023-03-03T06:08:44.253Z,99.90
2023-03-03T06:11:11.400Z,99.90
2023-03-03T06:13:38.300Z,99.90
2023-03-03T06:16:05.496Z,99.90
2023-03-03T06:18:32.377Z,99.90
2023-03-03T06:20:59.322Z,99.90
2023-03-03T06:23:26.280Z,99.90
2023-03-03T06:25:53.814Z,99.90
2023-03-03T06:28:20.846Z,99.90
2023-03-03T06:30:47.760Z,99.90
2023-03-03T06:33:14.627Z,99.90
2023-03-03T06:35:41.675Z,99.90
2023-03-03T06:38:08.636Z,99.90
2023-03-03T06:40:35.623Z,99.90
2023-03-03T06:43:03.390Z,99.90
2023-03-03T06:45:30.296Z,99.90
2023-03-03T06:47:57.280Z,99.90
2023-03-03T06:50:24.230Z,99.90
2023-03-03T06:53:07.657Z,99.90
2023-03-03T06:55:34.661Z,99.90
2023-03-03T06:58:01.879Z,99.90
2023-03-03T07:00:30.988Z,99.90
2023-03-03T07:03:08.624Z,99.90
2023-03-03T07:05:35.513Z,99.90
2023-03-03T07:08:02.451Z,99.90
2023-03-03T07:10:30.927Z,99.90
2023-03-03T07:13:12.162Z,99.90
2023-03-03T07:15:39.101Z,99.90
2023-03-03T07:18:30.161Z,99.90
2023-03-03T07:20:57.088Z,99.90
2023-03-03T07:23:42.522Z,99.90
2023-03-03T07:26:15.228Z,99.90
2023-03-03T07:28:45.426Z,99.90
2023-03-03T07:31:44.598Z,99.90
2023-03-03T07:34:22.606Z,99.90
2023-03-03T07:37:01.485Z,99.90
2023-03-03T07:39:40.911Z,99.90
2023-03-03T07:42:10.868Z,99.90
2023-03-03T07:44:38.558Z,99.90
2023-03-03T07:47:36.576Z,99.90
2023-03-03T07:50:20.202Z,99.90
2023-03-03T07:52:59.772Z,99.90
2023-03-03T07:55:37.978Z,99.90
2023-03-03T07:58:14.873Z,99.90
2023-03-03T08:01:19.433Z,99.90
2023-03-03T08:03:47.701Z,99.90
2023-03-03T08:06:32.900Z,99.90
2023-03-03T08:09:20.187Z,99.90
2023-03-03T08:11:53.243Z,99.90
2023-03-03T08:14:29.320Z,99.90
2023-03-03T08:16:59.237Z,99.90
2023-03-03T08:19:29.969Z,99.90
2023-03-03T08:22:14.033Z,99.90
2023-03-03T08:24:40.953Z,99.90
2023-03-03T08:27:09.953Z,99.90
2023-03-03T08:29:39.331Z,99.90
2023-03-03T08:32:06.418Z,99.90
2023-03-03T08:34:33.331Z,99.90
2023-03-03T08:37:00.248Z,99.90
2023-03-03T08:39:27.200Z,99.90
2023-03-03T08:41:54.093Z,99.90
2023-03-03T08:44:20.987Z,99.90
2023-03-03T08:46:48.027Z,99.90
2023-03-03T08:49:15.106Z,99.90
2023-03-03T08:51:42.364Z,99.90
2023-03-03T08:54:09.468Z,99.90
2023-03-03T08:56:36.734Z,99.90
2023-03-03T08:59:03.872Z,99.90
2023-03-03T09:01:33.197Z,99.90
2023-03-03T09:04:00.284Z,99.90
2023-03-03T09:06:27.242Z,99.90
2023-03-03T09:08:55.032Z,99.90
2023-03-03T09:11:27.740Z,99.90
2023-03-03T09:14:16.213Z,99.90
2023-03-03T09:16:51.041Z,99.90
2023-03-03T09:19:20.835Z,99.90
2023-03-03T09:21:50.682Z,99.90
2023-03-03T09:24:36.199Z,99.90
2023-03-03T09:27:12.288Z,99.90
2023-03-03T09:29:39.339Z,99.90
2023-03-03T09:32:26.128Z,99.90
2023-03-03T09:34:53.205Z,99.90
2023-03-03T09:37:24.286Z,99.90
2023-03-03T09:39:55.896Z,99.90
2023-03-03T09:42:51.044Z,99.90
2023-03-03T09:45:27.671Z,99.90
2023-03-03T09:48:02.782Z,99.90
2023-03-03T09:50:54.394Z,99.90
2023-03-03T09:53:53.635Z,99.90
2023-03-03T09:56:36.383Z,99.90
2023-03-03T09:59:40.526Z,99.90
2023-03-03T10:02:53.797Z,99.90
2023-03-03T10:05:33.879Z,99.90
2023-03-03T10:08:18.283Z,99.90
2023-03-03T10:11:00.669Z,99.90
2023-03-03T10:13:36.176Z,99.90
2023-03-03T10:16:45.401Z,99.90
2023-03-03T10:19:34.317Z,99.90
2023-03-03T10:22:24.494Z,97.30
2023-03-03T10:25:16.892Z,96.90
2023-03-03T10:28:05.719Z,93.50
2023-03-03T10:31:05.029Z,99.00
2023-03-03T10:34:00.641Z,99.50
2023-03-03T10:36:55.309Z,93.30
2023-03-03T10:40:01.164Z,96.40
2023-03-03T10:42:40.057Z,98.30
2023-03-03T10:45:28.284Z,99.00
2023-03-03T10:48:29.234Z,96.40
2023-03-03T10:51:27.076Z,91.50
2023-03-03T10:54:15.274Z,93.10
2023-03-03T10:56:57.674Z,93.30
2023-03-03T10:59:45.650Z,92.60
2023-03-03T11:02:15.439Z,93.90
2023-03-03T11:05:33.481Z,94.90
2023-03-03T11:08:14.315Z,92.10
2023-03-03T11:11:00.868Z,92.60
2023-03-03T11:13:52.312Z,93.90
2023-03-03T11:16:28.751Z,93.90
2023-03-03T11:19:20.908Z,91.50
2023-03-03T11:21:59.791Z,88.20
2023-03-03T11:25:01.223Z,93.80
2023-03-03T11:27:48.315Z,94.20
2023-03-03T11:30:35.830Z,95.00
2023-03-03T11:33:11.950Z,92.10
2023-03-03T11:35:47.794Z,92.40
2023-03-03T11:38:53.276Z,90.70
2023-03-03T11:41:32.615Z,90.80
2023-03-03T11:44:21.100Z,90.60
2023-03-03T11:47:03.331Z,90.50
2023-03-03T11:49:43.588Z,92.20
2023-03-03T11:52:53.394Z,92.20
2023-03-03T11:55:28.915Z,91.30
2023-03-03T11:58:12.880Z,92.60
2023-03-03T12:00:45.752Z,89.30
2023-03-03T12:03:19.860Z,87.10
2023-03-03T12:06:14.738Z,90.50
2023-03-03T12:09:00.520Z,91.80
2023-03-03T12:11:54.138Z,91.80
2023-03-03T12:14:41.544Z,92.70
2023-03-03T12:17:29.248Z,96.80
2023-03-03T12:20:23.774Z,99.90
2023-03-03T12:23:24.138Z,99.90
2023-03-03T12:26:13.068Z,99.90
2023-03-03T12:28:53.390Z,99.90
2023-03-03T12:31:57.663Z,99.90
2023-03-03T12:35:13.548Z,99.90
2023-03-03T12:37:51.968Z,99.90
2023-03-03T12:40:44.932Z,99.90
2023-03-03T12:43:23.647Z,99.90
2023-03-03T12:45:58.701Z,99.90
2023-03-03T12:48:44.773Z,99.90
2023-03-03T12:51:52.368Z,99.90
2023-03-03T12:54:27.748Z,99.90
2023-03-03T12:57:36.837Z,99.90
2023-03-03T13:00:06.572Z,99.90
2023-03-03T13:02:53.222Z,99.90
2023-03-03T13:05:29.090Z,99.90
2023-03-03T13:08:14.395Z,99.90
2023-03-03T13:10:57.647Z,99.90
2023-03-03T13:13:33.428Z,99.90
2023-03-03T13:16:41.449Z,99.90
2023-03-03T13:19:28.725Z,99.90
2023-03-03T13:22:03.134Z,99.90
2023-03-03T13:24:56.058Z,99.90
2023-03-03T13:27:26.890Z,99.90
2023-03-03T13:30:01.489Z,99.90
2023-03-03T13:33:00.178Z,99.90
2023-03-03T13:36:01.335Z,99.90
2023-03-03T13:38:33.693Z,99.90
2023-03-03T13:41:27.695Z,99.90
2023-03-03T13:44:27.113Z,99.90
2023-03-03T13:47:03.356Z,99.90
2023-03-03T13:49:42.247Z,99.90
2023-03-03T13:52:15.467Z,99.90
2023-03-03T13:55:09.579Z,99.90
2023-03-03T13:58:14.182Z,99.90
2023-03-03T14:00:56.934Z,99.90
2023-03-03T14:03:49.990Z,99.90
2023-03-03T14:06:23.431Z,99.90
2023-03-03T14:09:16.522Z,99.90
2023-03-03T14:12:00.702Z,99.90
2023-03-03T14:14:47.733Z,99.90
2023-03-03T14:17:25.973Z,99.90
2023-03-03T14:20:03.247Z,99.90
2023-03-03T14:22:52.792Z,99.90
2023-03-03T14:25:19.902Z,99.90
2023-03-03T14:27:46.735Z,99.90
2023-03-03T14:30:22.794Z,99.90
2023-03-03T14:33:09.489Z,99.90
2023-03-03T14:35:48.975Z,99.90
2023-03-03T14:38:22.220Z,99.90
2023-03-03T14:40:50.592Z,99.90
2023-03-03T14:43:36.336Z,99.90
2023-03-03T14:46:29.427Z,99.90
2023-03-03T14:48:59.858Z,99.90
2023-03-03T14:51:42.209Z,99.90
2023-03-03T14:54:22.568Z,99.90
2023-03-03T14:57:17.728Z,99.90
2023-03-03T15:00:00.234Z,99.90
2023-03-03T15:02:42.705Z,99.90
2023-03-03T15:05:21.651Z,99.90
2023-03-03T15:07:55.285Z,99.90
2023-03-03T15:10:34.189Z,99.90
2023-03-03T15:13:19.542Z,99.90
2023-03-03T15:16:17.530Z,99.90
2023-03-03T15:18:56.161Z,99.90
2023-03-03T15:21:28.472Z,99.90
2023-03-03T15:24:12.954Z,99.90
2023-03-03T15:26:50.048Z,99.90
2023-03-03T15:29:54.038Z,99.90
2023-03-03T15:32:44.709Z,99.90
2023-03-03T15:35:27.733Z,99.90
2023-03-03T15:38:06.969Z,99.90
2023-03-03T15:40:48.936Z,99.90
2023-03-03T15:43:37.060Z,99.90
2023-03-03T15:46:21.739Z,99.90
2023-03-03T15:48:52.164Z,99.90
2023-03-03T15:51:41.512Z,99.90
2023-03-03T15:54:29.856Z,99.90
2023-03-03T15:57:05.950Z,99.90
2023-03-03T15:59:56.134Z,99.90
2023-03-03T16:02:45.140Z,99.90
2023-03-03T16:05:17.145Z,99.90
2023-03-03T16:08:01.992Z,99.90
2023-03-03T16:10:40.066Z,99.90
2023-03-03T16:13:41.321Z,99.90
2023-03-03T16:16:26.803Z,99.90
2023-03-03T16:19:31.787Z,99.90
2023-03-03T16:22:17.448Z,99.90
2023-03-03T16:24:59.150Z,99.90
2023-03-03T16:27:54.456Z,99.90
2023-03-03T16:30:46.558Z,99.90
2023-03-03T16:33:27.124Z,99.90
2023-03-03T16:36:13.141Z,99.90
2023-03-03T16:38:48.550Z,99.90
2023-03-03T16:41:26.228Z,99.90
2023-03-03T16:44:13.407Z,99.90
2023-03-03T16:46:47.472Z,99.90
2023-03-03T16:49:52.054Z,99.90
2023-03-03T16:52:30.157Z,99.90
2023-03-03T16:54:59.632Z,99.90
2023-03-03T16:57:29.279Z,99.90
2023-03-03T17:00:12.331Z,99.90
2023-03-03T17:02:39.222Z,99.90
2023-03-03T17:05:23.499Z,99.90
2023-03-03T17:08:00.863Z,99.90
2023-03-03T17:10:37.975Z,99.90
2023-03-03T17:13:42.613Z,99.90
2023-03-03T17:16:25.324Z,99.90
2023-03-03T17:19:01.213Z,99.90
2023-03-03T17:22:14.770Z,99.90
2023-03-03T17:25:18.489Z,99.90
2023-03-03T17:28:13.134Z,99.90
2023-03-03T17:31:09.014Z,99.90
2023-03-03T17:33:55.691Z,99.90
2023-03-03T17:36:52.225Z,99.90
2023-03-03T17:39:37.004Z,99.90
2023-03-03T17:42:31.785Z,99.90
2023-03-03T17:45:14.262Z,99.90
2023-03-03T17:47:51.162Z,99.90
2023-03-03T17:50:44.147Z,99.90
2023-03-03T17:53:29.465Z,99.90
2023-03-03T17:56:03.056Z,99.90
2023-03-03T17:59:07.718Z,99.90
2023-03-03T18:01:53.538Z,99.90
2023-03-03T18:04:39.578Z,99.90
2023-03-03T18:07:25.002Z,99.90
2023-03-03T18:09:54.606Z,99.90
2023-03-03T18:12:24.247Z,99.90
2023-03-03T18:15:38.506Z,99.90
2023-03-03T18:18:18.511Z,99.90
2023-03-03T18:21:00.142Z,99.90
2023-03-03T18:23:41.961Z,99.90
2023-03-03T18:26:39.662Z,99.90
2023-03-03T18:29:23.618Z,99.90
2023-03-03T18:31:53.866Z,99.90
2023-03-03T18:34:21.015Z,99.90
2023-03-03T18:37:23.043Z,99.90
2023-03-03T18:40:17.873Z,99.90
2023-03-03T18:42:45.605Z,99.90
2023-03-03T18:45:33.686Z,99.90
2023-03-03T18:48:05.290Z,99.90
2023-03-03T18:50:38.827Z,99.90
2023-03-03T18:53:12.749Z,99.90
2023-03-03T18:55:48.221Z,99.90
2023-03-03T18:58:15.088Z,99.90
2023-03-03T19:00:54.392Z,99.90
2023-03-03T19:03:26.968Z,99.90
2023-03-03T19:05:57.671Z,99.90
2023-03-03T19:08:45.129Z,99.90
2023-03-03T19:11:57.072Z,99.90
2023-03-03T19:14:28.946Z,99.90
2023-03-03T19:16:58.616Z,99.90
2023-03-03T19:19:32.799Z,99.90
2023-03-03T19:22:30.192Z,99.90
2023-03-03T19:25:09.417Z,99.90
2023-03-03T19:27:53.019Z,99.90
2023-03-03T19:30:27.603Z,99.90
2023-03-03T19:33:28.368Z,99.90
2023-03-03T19:36:07.732Z,99.90
2023-03-03T19:39:16.537Z,99.90
2023-03-03T19:42:15.407Z,99.90
2023-03-03T19:45:04.538Z,99.90
2023-03-03T19:48:10.403Z,99.90
2023-03-03T19:51:09.918Z,99.90
2023-03-03T19:53:50.992Z,99.90
2023-03-03T19:56:21.791Z,99.90
2023-03-03T19:59:07.126Z,99.90
2023-03-03T20:01:33.946Z,99.90
2023-03-03T20:04:17.386Z,99.90
2023-03-03T20:07:11.730Z,99.90
2023-03-03T20:10:09.082Z,99.90
2023-03-03T20:13:00.734Z,99.90
2023-03-03T20:15:47.688Z,99.90
2023-03-03T20:18:53.046Z,99.90
2023-03-03T20:21:43.153Z,99.90
2023-03-03T20:24:31.128Z,99.90
2023-03-03T20:27:06.583Z,99.90
2023-03-03T20:30:02.360Z,99.90
2023-03-03T20:32:35.581Z,99.90
2023-03-03T20:35:24.918Z,99.90
2023-03-03T20:37:54.826Z,99.90
2023-03-03T20:40:36.021Z,99.90
2023-03-03T20:43:16.517Z,99.90
2023-03-03T20:46:02.573Z,99.90
2023-03-03T20:49:04.749Z,99.90
2023-03-03T20:51:53.762Z,99.90
2023-03-03T20:54:42.017Z,99.90
2023-03-03T20:57:34.733Z,99.90
2023-03-03T21:00:16.331Z,99.90
2023-03-03T21:02:59.964Z,99.90
2023-03-03T21:05:31.715Z,99.90
2023-03-03T21:08:03.771Z,99.90
2023-03-03T21:10:34.133Z,99.90
2023-03-03T21:13:52.092Z,99.90
2023-03-03T21:16:21.872Z,99.90
2023-03-03T21:18:58.434Z,99.90
2023-03-03T21:21:28.392Z,99.90
2023-03-03T21:23:55.654Z,99.90
2023-03-03T21:26:47.920Z,99.90
2023-03-03T21:29:29.250Z,99.90
2023-03-03T21:32:01.223Z,99.90
2023-03-03T21:34:33.306Z,99.90
2023-03-03T21:37:02.405Z,99.90
2023-03-03T21:39:37.512Z,99.90
2023-03-03T21:42:09.837Z,99.90
2023-03-03T21:44:50.116Z,99.90
2023-03-03T21:47:20.022Z,99.90
2023-03-03T21:49:49.659Z,99.90
2023-03-03T21:52:18.726Z,99.90
2023-03-03T21:54:50.558Z,99.90
2023-03-03T21:57:17.969Z,99.90
2023-03-03T21:59:44.927Z,99.90
2023-03-03T22:02:11.954Z,99.90
2023-03-03T22:04:39.100Z,99.90
2023-03-03T22:07:06.051Z,99.90
2023-03-03T22:09:35.165Z,99.90
2023-03-03T22:12:02.084Z,99.90
2023-03-03T22:14:29.035Z,99.90
2023-03-03T22:16:57.519Z,99.90
2023-03-03T22:19:25.161Z,99.90
2023-03-03T22:21:53.439Z,99.90
2023-03-03T22:24:20.321Z,99.90
2023-03-03T22:26:47.189Z,99.90
2023-03-03T22:29:16.929Z,99.90
2023-03-03T22:31:43.917Z,99.90
2023-03-03T22:34:12.619Z,99.90
2023-03-03T22:36:39.793Z,99.90
2023-03-03T22:39:06.681Z,99.90
2023-03-03T22:41:33.597Z,99.90
2023-03-03T22:44:00.538Z,99.90
2023-03-03T22:46:27.462Z,99.90
2023-03-03T22:48:54.403Z,99.90
2023-03-03T22:51:24.260Z,99.90
2023-03-03T22:53:51.241Z,99.90
2023-03-03T22:56:18.309Z,99.90
2023-03-03T22:58:45.561Z,99.90
2023-03-03T23:01:12.448Z,99.90
2023-03-03T23:03:39.800Z,99.90
2023-03-03T23:06:07.186Z,99.90
2023-03-03T23:08:34.167Z,99.90
2023-03-03T23:11:01.168Z,99.90
2023-03-03T23:13:28.194Z,99.90
2023-03-03T23:16:01.147Z,99.90
2023-03-03T23:18:28.913Z,99.90
2023-03-03T23:20:56.703Z,99.90
2023-03-03T23:23:24.094Z,99.90
2023-03-03T23:25:51.100Z,99.90
2023-03-03T23:28:19.334Z,99.90
2023-03-03T23:30:46.430Z,99.90
2023-03-03T23:33:13.704Z,99.90
2023-03-03T23:35:41.141Z,99.90
2023-03-03T23:38:08.121Z,99.90
2023-03-03T23:40:37.328Z,99.90
2023-03-03T23:43:04.215Z,99.90
2023-03-03T23:45:31.109Z,99.90
2023-03-03T23:47:59.331Z,99.90
2023-03-03T23:50:26.455Z,99.90
2023-03-03T23:52:53.479Z,99.90
2023-03-03T23:55:20.750Z,99.90
2023-03-03T23:57:47.899Z,99.90
